createdAt,value
2018-02-09T00:01:21.259Z,62.75
2018-02-09T00:03:47.579Z,62.65
2018-02-09T00:06:13.847Z,62.26
2018-02-09T00:08:40.111Z,62.42
2018-02-09T00:11:06.397Z,62.25
2018-02-09T00:13:32.673Z,62.16
2018-02-09T00:15:58.949Z,61.69
2018-02-09T00:18:25.231Z,61.57
2018-02-09T00:20:51.511Z,61.77
2018-02-09T00:23:17.835Z,61.52
2018-02-09T00:25:44.192Z,61.21
2018-02-09T00:28:10.557Z,60.83
2018-02-09T00:30:36.843Z,60.60
2018-02-09T00:33:03.160Z,60.09
2018-02-09T00:35:29.505Z,60.72
2018-02-09T00:37:56.752Z,59.99
2018-02-09T00:40:23.062Z,59.67
2018-02-09T00:42:49.324Z,59.80
2018-02-09T00:45:15.641Z,59.54
2018-02-09T00:47:41.976Z,59.81
2018-02-09T00:50:08.262Z,59.15
2018-02-09T00:52:34.526Z,59.03
2018-02-09T00:55:00.885Z,58.26
2018-02-09T00:57:27.174Z,57.85
2018-02-09T00:59:53.456Z,57.79
2018-02-09T01:02:20.480Z,57.76
2018-02-09T01:04:46.810Z,57.85
2018-02-09T01:07:20.044Z,57.46
2018-02-09T01:09:46.315Z,58.08
2018-02-09T01:12:12.618Z,57.61
2018-02-09T01:14:38.914Z,57.49
2018-02-09T01:17:05.215Z,56.82
2018-02-09T01:19:31.508Z,57.35
2018-02-09T01:21:57.794Z,56.74
2018-02-09T01:24:24.074Z,57.09
2018-02-09T01:26:50.370Z,57.78
2018-02-09T01:29:16.652Z,57.72
2018-02-09T01:31:43.026Z,57.66
2018-02-09T01:34:10.072Z,57.59
2018-02-09T01:36:36.409Z,57.77
2018-02-09T01:39:03.443Z,57.48
2018-02-09T01:41:29.748Z,57.44
2018-02-09T01:43:56.006Z,57.72
2018-02-09T01:46:22.315Z,57.26
2018-02-09T01:48:48.591Z,57.36
2018-02-09T01:51:15.602Z,57.86
2018-02-09T01:53:41.893Z,58.26
2018-02-09T01:56:08.147Z,58.19
2018-02-09T01:58:34.569Z,58.35
2018-02-09T02:01:00.828Z,58.46
2018-02-09T02:03:27.117Z,58.50
2018-02-09T02:05:53.517Z,57.85
2018-02-09T02:08:20.535Z,58.00
2018-02-09T02:10:46.876Z,57.74
2018-02-09T02:13:13.172Z,57.20
2018-02-09T02:15:39.438Z,57.08
2018-02-09T02:18:05.728Z,56.96
2018-02-09T02:20:32.026Z,56.97
2018-02-09T02:22:58.306Z,57.21
2018-02-09T02:25:24.605Z,57.31
2018-02-09T02:27:50.908Z,57.32
2018-02-09T02:30:17.984Z,57.67
2018-02-09T02:32:44.256Z,57.77
2018-02-09T02:35:10.575Z,57.55
2018-02-09T02:37:36.856Z,57.21
2018-02-09T02:40:03.160Z,57.29
2018-02-09T02:42:29.435Z,57.20
2018-02-09T02:44:55.691Z,56.88
2018-02-09T02:47:22.093Z,56.84
2018-02-09T02:49:48.364Z,57.18
2018-02-09T02:52:14.644Z,57.94
2018-02-09T02:54:40.915Z,58.10
2018-02-09T02:57:07.234Z,58.20
2018-02-09T02:59:33.543Z,58.30
2018-02-09T03:01:59.841Z,58.06
2018-02-09T03:04:26.105Z,58.37
2018-02-09T03:06:52.389Z,58.54
2018-02-09T03:09:18.643Z,59.02
2018-02-09T03:11:45.709Z,59.77
2018-02-09T03:14:12.002Z,59.59
2018-02-09T03:16:38.315Z,59.41
2018-02-09T03:19:04.600Z,60.17
2018-02-09T03:21:30.892Z,60.11
2018-02-09T03:23:57.177Z,60.19
2018-02-09T03:26:23.462Z,59.79
2018-02-09T03:28:49.726Z,59.55
2018-02-09T03:31:16.005Z,59.46
2018-02-09T03:33:42.269Z,59.64
2018-02-09T03:36:08.565Z,60.02
2018-02-09T03:38:34.830Z,60.59
2018-02-09T03:41:01.100Z,60.48
2018-02-09T03:43:27.401Z,60.68
2018-02-09T03:45:53.730Z,60.81
2018-02-09T03:48:20.034Z,61.24
2018-02-09T03:50:47.059Z,61.75
2018-02-09T03:53:13.339Z,62.06
2018-02-09T03:58:12.668Z,62.34
2018-02-09T04:00:38.926Z,61.97
2018-02-09T04:03:05.265Z,62.35
2018-02-09T04:05:31.532Z,61.81
2018-02-09T04:07:58.538Z,61.62
2018-02-09T04:10:24.866Z,61.61
2018-02-09T04:12:51.118Z,61.48
2018-02-09T04:15:17.376Z,60.97
2018-02-09T04:17:43.654Z,60.73
2018-02-09T04:20:09.900Z,60.79
2018-02-09T04:22:36.177Z,61.09
2018-02-09T04:25:02.472Z,60.68
2018-02-09T04:27:28.735Z,60.64
2018-02-09T04:29:55.051Z,60.52
2018-02-09T04:32:21.357Z,61.04
2018-02-09T04:34:47.729Z,60.48
2018-02-09T04:37:14.003Z,60.43
2018-02-09T04:39:40.359Z,60.17
2018-02-09T04:42:06.801Z,59.98
2018-02-09T04:44:33.937Z,59.94
2018-02-09T04:47:00.265Z,60.32
2018-02-09T04:49:26.567Z,60.96
2018-02-09T04:51:52.895Z,60.86
2018-02-09T04:54:19.161Z,60.67
2018-02-09T04:56:45.537Z,60.58
2018-02-09T04:59:11.812Z,60.83
2018-02-09T05:01:38.120Z,61.01
2018-02-09T05:04:04.408Z,60.95
2018-02-09T05:06:31.388Z,60.77
2018-02-09T05:08:57.654Z,60.40
2018-02-09T05:11:23.932Z,60.73
2018-02-09T05:13:50.263Z,60.33
2018-02-09T05:16:16.530Z,60.80
2018-02-09T05:18:43.126Z,61.04
2018-02-09T05:21:09.392Z,60.87
2018-02-09T05:23:35.694Z,60.42
2018-02-09T05:26:01.974Z,60.03
2018-02-09T05:28:28.252Z,60.62
2018-02-09T05:30:54.491Z,60.18
2018-02-09T05:33:20.803Z,59.91
2018-02-09T05:35:47.054Z,60.46
2018-02-09T05:38:13.361Z,60.79
2018-02-09T05:40:39.758Z,61.02
2018-02-09T05:43:06.026Z,60.75
2018-02-09T05:45:32.287Z,61.03
2018-02-09T05:47:58.646Z,61.37
2018-02-09T05:50:24.947Z,61.01
2018-02-09T05:52:51.239Z,61.32
2018-02-09T05:55:17.535Z,61.47
2018-02-09T05:57:43.818Z,61.90
2018-02-09T06:00:10.143Z,62.14
2018-02-09T06:02:36.443Z,62.70
2018-02-09T06:05:03.446Z,62.31
2018-02-09T06:07:29.797Z,62.55
2018-02-09T06:09:56.160Z,62.68
2018-02-09T06:12:23.206Z,62.48
2018-02-09T06:14:50.214Z,62.63
2018-02-09T06:17:16.520Z,62.50
2018-02-09T06:19:42.800Z,62.67
2018-02-09T06:22:09.074Z,63.03
2018-02-09T06:24:35.490Z,63.12
2018-02-09T06:27:01.848Z,63.07
2018-02-09T06:29:28.227Z,63.50
2018-02-09T06:31:55.280Z,62.87
2018-02-09T06:34:22.305Z,63.48
2018-02-09T06:36:48.573Z,63.62
2018-02-09T06:39:15.574Z,63.68
2018-02-09T06:41:41.855Z,63.82
2018-02-09T06:44:08.939Z,63.52
2018-02-09T06:46:35.212Z,63.48
2018-02-09T06:49:02.383Z,63.01
2018-02-09T06:51:28.909Z,63.09
2018-02-09T06:53:55.923Z,63.10
2018-02-09T06:56:22.492Z,63.12
2018-02-09T06:58:48.782Z,62.93
2018-02-09T07:01:15.021Z,62.51
2018-02-09T07:03:41.338Z,61.71
2018-02-09T07:06:07.664Z,61.70
2018-02-09T07:08:34.020Z,61.53
2018-02-09T07:11:01.098Z,61.17
2018-02-09T07:13:28.176Z,60.59
2018-02-09T07:15:54.422Z,60.57
2018-02-09T07:18:20.700Z,61.01
2018-02-09T07:20:47.764Z,60.82
2018-02-09T07:23:13.995Z,60.69
2018-02-09T07:25:40.265Z,60.13
2018-02-09T07:28:06.516Z,60.43
2018-02-09T07:30:32.823Z,60.21
2018-02-09T07:32:59.077Z,60.04
2018-02-09T07:35:25.331Z,59.79
2018-02-09T07:37:52.382Z,59.32
2018-02-09T07:40:19.375Z,59.24
2018-02-09T07:42:45.655Z,58.96
2018-02-09T07:45:11.958Z,58.85
2018-02-09T07:47:38.187Z,57.92
2018-02-09T07:50:04.537Z,58.08
2018-02-09T07:52:31.533Z,57.93
2018-02-09T07:54:57.812Z,58.23
2018-02-09T07:57:24.824Z,57.77
2018-02-09T07:59:51.112Z,56.25
2018-02-09T08:02:17.363Z,56.36
2018-02-09T08:04:43.729Z,56.11
2018-02-09T08:07:10.024Z,56.07
2018-02-09T08:09:36.290Z,55.02
2018-02-09T08:12:02.608Z,54.61
2018-02-09T08:14:28.864Z,54.37
2018-02-09T08:16:55.154Z,52.98
2018-02-09T08:19:21.472Z,51.55
2018-02-09T08:21:47.780Z,50.81
2018-02-09T08:24:14.904Z,50.41
2018-02-09T08:26:41.189Z,50.33
2018-02-09T08:29:07.527Z,51.11
2018-02-09T08:31:33.775Z,51.68
2018-02-09T08:34:00.049Z,51.02
2018-02-09T08:36:27.062Z,51.39
2018-02-09T08:38:53.314Z,51.90
2018-02-09T08:41:20.343Z,51.86
2018-02-09T08:43:46.611Z,52.01
2018-02-09T08:46:12.924Z,51.88
2018-02-09T08:48:39.217Z,51.74
2018-02-09T08:51:05.520Z,51.12
2018-02-09T08:53:31.788Z,50.33
2018-02-09T08:55:58.026Z,50.32
2018-02-09T08:58:24.306Z,50.17
2018-02-09T09:00:50.584Z,50.45
2018-02-09T09:03:16.864Z,49.95
2018-02-09T09:05:43.117Z,49.62
2018-02-09T09:08:09.364Z,49.40
2018-02-09T09:10:35.672Z,48.91
2018-02-09T09:13:01.927Z,49.01
2018-02-09T09:15:28.214Z,49.04
2018-02-09T09:17:54.456Z,48.56
2018-02-09T09:20:20.708Z,47.77
2018-02-09T09:22:46.980Z,48.15
2018-02-09T09:25:13.986Z,48.52
2018-02-09T09:27:40.326Z,48.67
2018-02-09T09:30:06.643Z,48.99
2018-02-09T09:32:32.896Z,48.15
2018-02-09T09:34:59.907Z,47.06
2018-02-09T09:37:26.151Z,46.73
2018-02-09T09:39:52.481Z,46.81
2018-02-09T09:42:18.779Z,46.92
2018-02-09T09:44:45.070Z,47.14
2018-02-09T09:47:12.110Z,46.67
2018-02-09T09:49:38.399Z,46.24
2018-02-09T09:52:04.638Z,45.76
2018-02-09T09:54:30.870Z,45.92
2018-02-09T09:56:57.178Z,46.17
2018-02-09T09:59:23.395Z,45.77
2018-02-09T10:01:49.642Z,46.01
2018-02-09T10:04:15.938Z,46.22
2018-02-09T10:06:42.972Z,45.59
2018-02-09T10:09:09.272Z,44.78
2018-02-09T10:11:35.580Z,44.52
2018-02-09T10:14:01.877Z,44.42
2018-02-09T10:16:28.980Z,43.39
2018-02-09T10:18:55.238Z,43.17
2018-02-09T10:21:21.493Z,43.11
2018-02-09T10:23:47.820Z,43.10
2018-02-09T10:26:14.857Z,43.19
2018-02-09T10:28:41.879Z,43.07
2018-02-09T10:31:08.115Z,43.91
2018-02-09T10:33:34.449Z,43.28
2018-02-09T10:36:00.689Z,42.77
2018-02-09T10:38:27.716Z,42.83
2018-02-09T10:40:54.000Z,42.54
2018-02-09T10:43:20.298Z,42.40
2018-02-09T10:45:46.550Z,42.65
2018-02-09T10:48:12.808Z,42.50
2018-02-09T10:50:39.070Z,41.88
2018-02-09T10:53:05.388Z,41.38
2018-02-09T10:55:32.424Z,41.14
2018-02-09T10:57:58.696Z,40.69
2018-02-09T11:00:32.027Z,40.29
2018-02-09T11:02:58.273Z,40.92
2018-02-09T11:05:24.552Z,41.39
2018-02-09T11:07:51.537Z,40.80
2018-02-09T11:10:23.931Z,41.11
2018-02-09T11:12:50.214Z,40.76
2018-02-09T11:15:17.269Z,40.40
2018-02-09T11:17:43.544Z,40.46
2018-02-09T11:20:09.787Z,39.44
2018-02-09T11:22:36.054Z,39.29
2018-02-09T11:25:02.336Z,38.32
2018-02-09T11:27:28.651Z,36.63
2018-02-09T11:29:54.907Z,35.44
2018-02-09T11:32:21.204Z,32.73
2018-02-09T11:34:47.460Z,30.75
2018-02-09T11:37:13.763Z,29.51
2018-02-09T11:39:40.099Z,28.24
2018-02-09T11:42:06.377Z,27.62
2018-02-09T11:44:32.677Z,25.65
2018-02-09T11:46:58.926Z,24.15
2018-02-09T11:49:25.186Z,23.04
2018-02-09T11:51:51.467Z,22.60
2018-02-09T11:54:17.711Z,21.35
2018-02-09T11:56:43.964Z,20.95
2018-02-09T11:59:11.022Z,20.86
2018-02-09T12:01:38.020Z,18.73
2018-02-09T12:04:04.280Z,17.33
2018-02-09T12:06:30.555Z,16.49
2018-02-09T12:08:56.860Z,15.86
2018-02-09T12:11:23.900Z,15.13
2018-02-09T12:13:50.954Z,15.27
2018-02-09T12:16:17.960Z,15.16
2018-02-09T12:18:44.274Z,14.33
2018-02-09T12:21:10.520Z,13.80
2018-02-09T12:23:36.816Z,13.67
2018-02-09T12:26:03.153Z,14.30
2018-02-09T12:28:29.423Z,13.73
2018-02-09T12:30:55.679Z,15.18
2018-02-09T12:33:21.959Z,16.20
2018-02-09T12:35:48.246Z,15.85
2018-02-09T12:38:15.236Z,16.93
2018-02-09T12:40:41.480Z,15.98
2018-02-09T12:43:07.747Z,16.59
2018-02-09T12:45:34.047Z,15.83
2018-02-09T12:48:00.340Z,14.99
2018-02-09T12:50:26.604Z,14.31
2018-02-09T12:52:52.832Z,14.27
2018-02-09T12:55:19.136Z,13.44
2018-02-09T12:57:45.470Z,13.10
2018-02-09T13:00:11.712Z,13.03
2018-02-09T13:02:38.080Z,14.23
2018-02-09T13:05:05.180Z,14.71
2018-02-09T13:07:31.420Z,14.07
2018-02-09T13:09:57.716Z,16.01
2018-02-09T13:12:42.631Z,15.50
2018-02-09T13:15:08.943Z,14.92
2018-02-09T13:17:35.245Z,15.23
2018-02-09T13:20:01.577Z,14.08
2018-02-09T13:25:38.064Z,13.30
2018-02-09T13:28:04.356Z,13.72
2018-02-09T13:30:30.632Z,14.23
2018-02-09T13:33:15.804Z,16.07
2018-02-09T13:35:42.109Z,17.90
2018-02-09T13:38:09.146Z,19.03
2018-02-09T13:40:36.157Z,17.07
2018-02-09T13:43:02.497Z,16.03
2018-02-09T13:45:28.795Z,18.27
2018-02-09T13:47:55.143Z,18.02
2018-02-09T13:50:21.455Z,17.32
2018-02-09T13:52:47.761Z,19.47
2018-02-09T13:55:14.856Z,18.18
2018-02-09T13:57:42.945Z,18.41
2018-02-09T14:00:10.194Z,19.59
2018-02-09T14:02:37.296Z,19.31
2018-02-09T14:05:03.549Z,17.41
2018-02-09T14:07:29.869Z,17.00
2018-02-09T14:09:56.191Z,16.32
2018-02-09T14:12:22.531Z,16.86
2018-02-09T14:14:48.830Z,17.81
2018-02-09T14:19:49.654Z,18.13
2018-02-09T14:22:15.952Z,17.08
2018-02-09T14:24:42.264Z,18.68
2018-02-09T14:27:08.547Z,20.17
2018-02-09T14:29:34.828Z,21.31
2018-02-09T14:32:01.868Z,23.17
2018-02-09T14:34:28.178Z,24.80
2018-02-09T14:36:55.268Z,24.47
2018-02-09T14:39:21.565Z,24.62
2018-02-09T14:41:48.607Z,25.34
2018-02-09T14:44:15.635Z,25.60
2018-02-09T14:46:41.984Z,23.59
2018-02-09T14:49:09.055Z,23.20
2018-02-09T14:51:35.313Z,23.51
2018-02-09T14:54:01.615Z,25.30
2018-02-09T14:56:27.872Z,25.83
2018-02-09T14:58:54.144Z,28.39
2018-02-09T15:01:20.474Z,31.23
2018-02-09T15:03:46.771Z,33.51
2018-02-09T15:06:13.008Z,35.08
2018-02-09T15:08:39.333Z,36.91
2018-02-09T15:11:05.608Z,37.71
2018-02-09T15:13:32.654Z,39.04
2018-02-09T15:15:59.702Z,40.06
2018-02-09T15:18:26.756Z,40.77
2018-02-09T15:20:53.833Z,42.01
2018-02-09T15:23:20.233Z,43.71
2018-02-09T15:25:47.256Z,44.77
2018-02-09T15:28:13.558Z,45.73
2018-02-09T15:30:39.849Z,47.80
2018-02-09T15:33:06.893Z,48.28
2018-02-09T15:35:33.851Z,49.02
2018-02-09T15:38:00.151Z,49.77
2018-02-09T15:40:26.397Z,49.76
2018-02-09T15:42:53.420Z,50.76
2018-02-09T15:45:19.688Z,50.84
2018-02-09T15:47:46.042Z,51.65
2018-02-09T15:50:12.395Z,51.93
2018-02-09T15:52:38.684Z,52.25
2018-02-09T15:55:04.956Z,52.71
2018-02-09T15:57:32.116Z,52.76
2018-02-09T15:59:58.384Z,53.75
2018-02-09T16:02:24.690Z,53.93
2018-02-09T16:04:51.061Z,53.68
2018-02-09T16:07:17.354Z,53.68
2018-02-09T16:09:43.658Z,54.31
2018-02-09T16:12:09.970Z,55.02
2018-02-09T16:14:36.276Z,54.77
2018-02-09T16:17:02.633Z,54.45
2018-02-09T16:19:28.912Z,54.52
2018-02-09T16:21:55.213Z,55.43
2018-02-09T16:24:21.529Z,56.12
2018-02-09T16:26:47.843Z,56.21
2018-02-09T16:29:14.113Z,56.17
2018-02-09T16:31:40.385Z,55.88
2018-02-09T16:34:06.722Z,55.82
2018-02-09T16:36:32.995Z,56.53
2018-02-09T16:38:59.275Z,56.74
2018-02-09T16:41:26.427Z,57.41
2018-02-09T16:43:53.515Z,57.45
2018-02-09T16:46:19.767Z,58.32
2018-02-09T16:48:46.519Z,58.58
2018-02-09T16:51:12.903Z,58.50
2018-02-09T16:53:39.186Z,58.85
2018-02-09T16:56:05.603Z,59.15
2018-02-09T16:58:32.005Z,59.03
2018-02-09T17:00:58.325Z,59.46
2018-02-09T17:03:24.676Z,59.28
2018-02-09T17:05:51.028Z,59.07
2018-02-09T17:08:17.564Z,58.85
2018-02-09T17:10:43.930Z,59.66
2018-02-09T17:13:11.063Z,59.46
2018-02-09T17:15:37.368Z,59.56
2018-02-09T17:18:03.642Z,59.77
2018-02-09T17:20:30.699Z,59.42
2018-02-09T17:22:56.974Z,59.24
2018-02-09T17:25:23.269Z,59.79
2018-02-09T17:27:49.623Z,59.70
2018-02-09T17:30:15.933Z,59.91
2018-02-09T17:32:42.221Z,60.10
2018-02-09T17:35:08.552Z,60.86
2018-02-09T17:37:34.845Z,61.16
2018-02-09T17:40:01.158Z,61.49
2018-02-09T17:42:27.552Z,61.33
2018-02-09T17:44:53.845Z,60.83
2018-02-09T17:47:20.146Z,60.51
2018-02-09T17:49:47.252Z,60.22
2018-02-09T17:52:13.560Z,60.60
2018-02-09T17:54:39.846Z,60.72
2018-02-09T17:57:06.896Z,60.67
2018-02-09T17:59:33.936Z,60.97
2018-02-09T18:02:00.956Z,61.36
2018-02-09T18:04:27.340Z,61.43
2018-02-09T18:06:53.822Z,61.78
2018-02-09T18:09:20.093Z,62.08
2018-02-09T18:11:46.409Z,62.07
2018-02-09T18:14:13.457Z,62.17
2018-02-09T18:16:40.559Z,62.94
2018-02-09T18:19:06.895Z,63.55
2018-02-09T18:21:33.180Z,63.31
2018-02-09T18:23:59.493Z,63.20
2018-02-09T18:26:26.519Z,63.33
2018-02-09T18:28:52.794Z,63.21
2018-02-09T18:31:19.184Z,63.88
2018-02-09T18:33:45.573Z,63.85
2018-02-09T18:36:11.851Z,63.66
2018-02-09T18:38:38.180Z,63.84
2018-02-09T18:41:04.520Z,63.95
2018-02-09T18:43:30.778Z,63.75
2018-02-09T18:45:57.108Z,63.74
2018-02-09T18:48:23.422Z,64.32
2018-02-09T18:50:50.455Z,64.17
2018-02-09T18:53:16.704Z,63.71
2018-02-09T18:55:43.729Z,63.68
2018-02-09T18:58:10.028Z,63.89
2018-02-09T19:00:36.315Z,63.82
2018-02-09T19:03:03.363Z,64.02
2018-02-09T19:05:30.400Z,63.82
2018-02-09T19:08:00.094Z,64.14
2018-02-09T19:10:27.313Z,64.43
2018-02-09T19:12:53.888Z,64.26
2018-02-09T19:15:20.218Z,64.44
2018-02-09T19:17:46.488Z,64.58
2018-02-09T19:20:12.835Z,64.64
2018-02-09T19:22:39.136Z,64.71
2018-02-09T19:25:06.172Z,64.85
2018-02-09T19:27:33.209Z,64.83
2018-02-09T19:29:59.522Z,64.73
2018-02-09T19:32:25.827Z,64.86
2018-02-09T19:34:52.137Z,65.18
2018-02-09T19:37:18.522Z,65.39
2018-02-09T19:39:44.823Z,65.33
2018-02-09T19:42:11.144Z,65.27
2018-02-09T19:44:37.513Z,65.76
2018-02-09T19:47:03.953Z,65.90
2018-02-09T19:49:31.053Z,65.66
2018-02-09T19:51:57.379Z,65.72
2018-02-09T19:54:23.681Z,65.97
2018-02-09T19:56:50.761Z,65.78
2018-02-09T19:59:17.056Z,65.29
2018-02-09T20:01:44.116Z,65.52
2018-02-09T20:04:11.396Z,65.85
2018-02-09T20:06:37.684Z,65.83
2018-02-09T20:09:05.182Z,65.61
2018-02-09T20:11:32.485Z,65.60
2018-02-09T20:13:58.836Z,65.50
2018-02-09T20:16:25.877Z,65.74
2018-02-09T20:18:52.211Z,65.85
2018-02-09T20:21:18.577Z,65.72
2018-02-09T20:23:44.911Z,65.85
2018-02-09T20:26:11.184Z,65.75
2018-02-09T20:28:37.437Z,65.60
2018-02-09T20:31:04.491Z,65.11
2018-02-09T20:33:31.524Z,64.63
2018-02-09T20:35:57.928Z,64.39
2018-02-09T20:38:24.200Z,64.21
2018-02-09T20:40:51.228Z,64.18
2018-02-09T20:43:17.526Z,64.04
2018-02-09T20:45:43.845Z,64.04
2018-02-09T20:48:10.412Z,63.58
2018-02-09T20:50:36.710Z,64.23
2018-02-09T20:53:03.051Z,64.13
2018-02-09T20:55:29.350Z,64.64
2018-02-09T20:57:55.692Z,64.71
2018-02-09T21:00:21.980Z,64.51
2018-02-09T21:02:48.318Z,64.71
2018-02-09T21:05:14.646Z,64.70
2018-02-09T21:07:41.066Z,65.06
2018-02-09T21:10:07.813Z,64.94
2018-02-09T21:12:34.152Z,65.13
2018-02-09T21:15:01.321Z,65.21
2018-02-09T21:17:28.349Z,65.28
2018-02-09T21:19:54.772Z,65.16
2018-02-09T21:22:21.120Z,65.73
2018-02-09T21:24:47.415Z,65.36
2018-02-09T21:27:13.768Z,65.36
2018-02-09T21:29:40.037Z,65.53
2018-02-09T21:32:06.346Z,65.81
2018-02-09T21:34:33.416Z,65.54
2018-02-09T21:36:59.701Z,65.68
2018-02-09T21:39:26.085Z,65.23
2018-02-09T21:41:52.386Z,65.05
2018-02-09T21:44:19.422Z,64.82
2018-02-09T21:46:45.748Z,64.66
2018-02-09T21:49:12.082Z,64.80
2018-02-09T21:51:38.404Z,64.75
2018-02-09T21:54:04.716Z,64.96
2018-02-09T21:56:30.960Z,65.05
2018-02-09T21:58:57.232Z,64.98
2018-02-09T22:01:24.355Z,65.20
2018-02-09T22:03:50.753Z,65.16
2018-02-09T22:06:17.052Z,65.16
2018-02-09T22:08:43.347Z,65.29
2018-02-09T22:11:09.691Z,65.41
2018-02-09T22:13:36.725Z,65.75
2018-02-09T22:16:03.023Z,65.88
2018-02-09T22:18:29.312Z,66.02
2018-02-09T22:20:55.579Z,65.99
2018-02-09T22:23:21.841Z,66.16
2018-02-09T22:25:48.241Z,66.39
2018-02-09T22:28:14.513Z,66.14
2018-02-09T22:30:40.801Z,66.51
2018-02-09T22:33:07.093Z,66.82
2018-02-09T22:35:34.191Z,66.70
2018-02-09T22:38:00.439Z,66.51
2018-02-09T22:40:26.705Z,66.53
2018-02-09T22:42:53.705Z,66.86
2018-02-09T22:45:19.982Z,67.05
2018-02-09T22:47:47.040Z,66.96
2018-02-09T22:50:14.030Z,66.89
2018-02-09T22:52:40.318Z,66.48
2018-02-09T22:55:06.589Z,66.92
2018-02-09T22:57:32.894Z,66.98
2018-02-09T22:59:59.180Z,67.34
2018-02-09T23:02:25.411Z,66.83
2018-02-09T23:04:51.681Z,66.86
2018-02-09T23:07:18.845Z,66.97
2018-02-09T23:09:45.101Z,67.28
2018-02-09T23:12:11.389Z,67.25
2018-02-09T23:14:37.683Z,67.72
2018-02-09T23:17:04.736Z,67.43
2018-02-09T23:19:31.801Z,66.73
2018-02-09T23:21:58.063Z,65.50
2018-02-09T23:24:24.365Z,65.66
2018-02-09T23:26:50.672Z,65.42
2018-02-09T23:29:17.699Z,65.89
2018-02-09T23:31:43.947Z,65.65
2018-02-09T23:34:10.230Z,65.71
2018-02-09T23:36:36.484Z,65.92
2018-02-09T23:39:02.892Z,65.80
2018-02-09T23:41:29.200Z,66.12
2018-02-09T23:43:55.472Z,66.23
2018-02-09T23:46:21.793Z,66.08
2018-02-09T23:48:48.068Z,66.31
2018-02-09T23:51:15.060Z,66.36
2018-02-09T23:53:41.313Z,66.35
2018-02-09T23:56:07.574Z,65.78
2018-02-09T23:58:34.607Z,64.97
